sensor_id;sensor_type;location;lat;lon;timestamp;P1;durP1;ratioP1;P2;durP2;ratioP2
65092;SDS011;52025;50.288;2.794;2023-02-15T05:32:42;31.85;;;21.90;;
65092;SDS011;52025;50.288;2.794;2023-02-15T05:35:07;33.60;;;22.17;;
65092;SDS011;52025;50.288;2.794;2023-02-15T05:37:32;34.95;;;21.88;;
65092;SDS011;52025;50.288;2.794;2023-02-15T05:39:58;34.55;;;22.27;;
65092;SDS011;52025;50.288;2.794;2023-02-15T05:42:23;36.50;;;21.67;;
65092;SDS011;52025;50.288;2.794;2023-02-15T05:44:48;37.58;;;22.23;;
65092;SDS011;52025;50.288;2.794;2023-02-15T05:47:14;33.60;;;21.52;;
65092;SDS011;52025;50.288;2.794;2023-02-15T05:49:39;38.85;;;22.77;;
65092;SDS011;52025;50.288;2.794;2023-02-15T05:52:04;32.88;;;20.65;;
65092;SDS011;52025;50.288;2.794;2023-02-15T05:54:29;35.47;;;22.08;;
65092;SDS011;52025;50.288;2.794;2023-02-15T05:56:55;36.70;;;21.92;;
65092;SDS011;52025;50.288;2.794;2023-02-15T05:59:20;32.25;;;22.52;;
65092;SDS011;52025;50.288;2.794;2023-02-15T06:01:45;34.67;;;23.00;;
65092;SDS011;52025;50.288;2.794;2023-02-15T06:04:10;36.90;;;22.30;;
65092;SDS011;52025;50.288;2.794;2023-02-15T06:06:36;37.85;;;20.65;;
65092;SDS011;52025;50.288;2.794;2023-02-15T06:09:01;35.42;;;21.60;;
65092;SDS011;52025;50.288;2.794;2023-02-15T06:11:26;38.97;;;21.58;;
65092;SDS011;52025;50.288;2.794;2023-02-15T06:13:51;35.28;;;21.50;;
65092;SDS011;52025;50.288;2.794;2023-02-15T06:16:17;33.05;;;22.20;;
65092;SDS011;52025;50.288;2.794;2023-02-15T06:18:42;35.28;;;20.77;;
65092;SDS011;52025;50.288;2.794;2023-02-15T06:21:08;37.33;;;22.25;;
65092;SDS011;52025;50.288;2.794;2023-02-15T06:23:33;36.90;;;23.02;;
65092;SDS011;52025;50.288;2.794;2023-02-15T06:25:58;33.45;;;21.10;;
65092;SDS011;52025;50.288;2.794;2023-02-15T06:28:23;35.38;;;21.20;;
65092;SDS011;52025;50.288;2.794;2023-02-15T06:30:50;35.70;;;22.08;;
65092;SDS011;52025;50.288;2.794;2023-02-15T06:33:15;35.63;;;22.45;;
65092;SDS011;52025;50.288;2.794;2023-02-15T06:35:40;35.42;;;20.45;;
65092;SDS011;52025;50.288;2.794;2023-02-15T06:38:06;38.65;;;21.25;;
65092;SDS011;52025;50.288;2.794;2023-02-15T06:40:31;34.15;;;20.77;;
65092;SDS011;52025;50.288;2.794;2023-02-15T06:42:56;31.25;;;20.38;;
65092;SDS011;52025;50.288;2.794;2023-02-15T06:45:21;39.30;;;23.98;;
65092;SDS011;52025;50.288;2.794;2023-02-15T06:47:47;35.53;;;21.77;;
65092;SDS011;52025;50.288;2.794;2023-02-15T06:50:12;35.72;;;21.95;;
65092;SDS011;52025;50.288;2.794;2023-02-15T06:52:37;43.67;;;27.02;;
65092;SDS011;52025;50.288;2.794;2023-02-15T06:55:03;39.45;;;23.02;;
65092;SDS011;52025;50.288;2.794;2023-02-15T06:57:28;35.58;;;21.90;;
65092;SDS011;52025;50.288;2.794;2023-02-15T06:59:53;33.28;;;20.75;;
65092;SDS011;52025;50.288;2.794;2023-02-15T07:02:18;37.30;;;23.98;;
65092;SDS011;52025;50.288;2.794;2023-02-15T07:04:44;32.85;;;20.92;;
65092;SDS011;52025;50.288;2.794;2023-02-15T07:07:09;35.20;;;20.40;;
65092;SDS011;52025;50.288;2.794;2023-02-15T07:09:35;32.78;;;21.55;;
65092;SDS011;52025;50.288;2.794;2023-02-15T07:12:01;36.25;;;21.88;;
65092;SDS011;52025;50.288;2.794;2023-02-15T07:14:45;33.20;;;21.60;;
65092;SDS011;52025;50.288;2.794;2023-02-15T07:17:10;31.02;;;20.60;;
65092;SDS011;52025;50.288;2.794;2023-02-15T07:19:35;34.28;;;21.15;;
65092;SDS011;52025;50.288;2.794;2023-02-15T07:22:00;33.65;;;20.80;;
65092;SDS011;52025;50.288;2.794;2023-02-15T07:24:26;31.55;;;21.30;;
65092;SDS011;52025;50.288;2.794;2023-02-15T07:26:51;36.53;;;22.30;;
65092;SDS011;52025;50.288;2.794;2023-02-15T07:29:16;36.28;;;22.02;;
65092;SDS011;52025;50.288;2.794;2023-02-15T07:31:42;33.22;;;20.75;;
65092;SDS011;52025;50.288;2.794;2023-02-15T07:34:10;31.33;;;20.10;;
65092;SDS011;52025;50.288;2.794;2023-02-15T07:36:35;33.03;;;20.52;;
65092;SDS011;52025;50.288;2.794;2023-02-15T07:39:00;31.63;;;21.45;;
65092;SDS011;52025;50.288;2.794;2023-02-15T07:41:25;34.60;;;21.08;;
65092;SDS011;52025;50.288;2.794;2023-02-15T07:43:51;30.50;;;19.88;;
65092;SDS011;52025;50.288;2.794;2023-02-15T07:46:16;34.15;;;21.67;;
65092;SDS011;52025;50.288;2.794;2023-02-15T07:48:42;35.88;;;22.27;;
65092;SDS011;52025;50.288;2.794;2023-02-15T07:51:08;39.33;;;22.15;;
65092;SDS011;52025;50.288;2.794;2023-02-15T07:53:34;37.30;;;21.45;;
65092;SDS011;52025;50.288;2.794;2023-02-15T07:56:03;37.20;;;23.25;;
65092;SDS011;52025;50.288;2.794;2023-02-15T07:58:29;37.40;;;22.65;;
65092;SDS011;52025;50.288;2.794;2023-02-15T08:01:13;36.28;;;22.13;;
65092;SDS011;52025;50.288;2.794;2023-02-15T08:03:38;32.95;;;20.13;;
65092;SDS011;52025;50.288;2.794;2023-02-15T08:06:03;31.35;;;19.92;;
65092;SDS011;52025;50.288;2.794;2023-02-15T08:08:29;35.42;;;20.73;;
65092;SDS011;52025;50.288;2.794;2023-02-15T08:11:04;35.65;;;20.45;;
65092;SDS011;52025;50.288;2.794;2023-02-15T08:13:49;36.40;;;20.58;;
65092;SDS011;52025;50.288;2.794;2023-02-15T08:16:28;34.20;;;20.65;;
65092;SDS011;52025;50.288;2.794;2023-02-15T08:18:54;37.38;;;20.30;;
65092;SDS011;52025;50.288;2.794;2023-02-15T08:21:20;34.63;;;19.75;;
65092;SDS011;52025;50.288;2.794;2023-02-15T08:23:45;33.60;;;19.90;;
65092;SDS011;52025;50.288;2.794;2023-02-15T08:26:11;36.67;;;20.30;;
65092;SDS011;52025;50.288;2.794;2023-02-15T08:28:36;34.38;;;21.58;;
65092;SDS011;52025;50.288;2.794;2023-02-15T08:31:08;33.78;;;20.98;;
65092;SDS011;52025;50.288;2.794;2023-02-15T08:33:34;34.78;;;21.52;;
65092;SDS011;52025;50.288;2.794;2023-02-15T08:36:08;35.63;;;21.42;;
65092;SDS011;52025;50.288;2.794;2023-02-15T08:38:33;36.25;;;21.05;;
65092;SDS011;52025;50.288;2.794;2023-02-15T08:41:08;34.75;;;21.00;;
65092;SDS011;52025;50.288;2.794;2023-02-15T08:43:34;35.33;;;20.95;;
65092;SDS011;52025;50.288;2.794;2023-02-15T08:45:59;34.75;;;20.80;;
65092;SDS011;52025;50.288;2.794;2023-02-15T08:48:24;35.45;;;20.42;;
65092;SDS011;52025;50.288;2.794;2023-02-15T08:56:14;36.38;;;21.48;;
65092;SDS011;52025;50.288;2.794;2023-02-15T08:58:39;34.13;;;19.88;;
65092;SDS011;52025;50.288;2.794;2023-02-15T09:01:09;32.40;;;19.40;;
65092;SDS011;52025;50.288;2.794;2023-02-15T09:03:34;42.35;;;21.25;;
65092;SDS011;52025;50.288;2.794;2023-02-15T09:06:00;34.80;;;20.45;;
65092;SDS011;52025;50.288;2.794;2023-02-15T09:08:26;33.20;;;20.35;;
65092;SDS011;52025;50.288;2.794;2023-02-15T09:10:51;34.13;;;19.25;;
65092;SDS011;52025;50.288;2.794;2023-02-15T09:13:17;33.40;;;20.20;;
65092;SDS011;52025;50.288;2.794;2023-02-15T09:15:42;32.70;;;20.10;;
65092;SDS011;52025;50.288;2.794;2023-02-15T09:18:07;35.00;;;19.10;;
65092;SDS011;52025;50.288;2.794;2023-02-15T09:20:35;35.65;;;19.67;;
65092;SDS011;52025;50.288;2.794;2023-02-15T09:23:01;36.85;;;21.02;;
65092;SDS011;52025;50.288;2.794;2023-02-15T09:25:26;37.58;;;20.80;;
65092;SDS011;52025;50.288;2.794;2023-02-15T09:27:54;31.52;;;19.20;;
65092;SDS011;52025;50.288;2.794;2023-02-15T09:30:20;35.17;;;20.10;;
65092;SDS011;52025;50.288;2.794;2023-02-15T09:32:45;35.90;;;20.63;;
65092;SDS011;52025;50.288;2.794;2023-02-15T09:35:11;33.80;;;20.25;;
65092;SDS011;52025;50.288;2.794;2023-02-15T09:37:36;33.88;;;19.95;;
65092;SDS011;52025;50.288;2.794;2023-02-15T09:40:02;36.25;;;20.48;;
65092;SDS011;52025;50.288;2.794;2023-02-15T09:47:58;33.30;;;18.70;;
65092;SDS011;52025;50.288;2.794;2023-02-15T09:58:11;33.83;;;19.05;;
65092;SDS011;52025;50.288;2.794;2023-02-15T10:08:30;34.85;;;19.73;;
65092;SDS011;52025;50.288;2.794;2023-02-15T10:10:59;32.92;;;19.27;;
65092;SDS011;52025;50.288;2.794;2023-02-15T10:13:56;30.27;;;19.85;;
65092;SDS011;52025;50.288;2.794;2023-02-15T10:16:31;36.15;;;19.83;;
65092;SDS011;52025;50.288;2.794;2023-02-15T10:26:35;33.17;;;18.65;;
65092;SDS011;52025;50.288;2.794;2023-02-15T10:29:03;34.80;;;18.83;;
65092;SDS011;52025;50.288;2.794;2023-02-15T10:31:47;34.83;;;19.70;;
65092;SDS011;52025;50.288;2.794;2023-02-15T10:39:27;38.15;;;19.30;;
65092;SDS011;52025;50.288;2.794;2023-02-15T10:47:04;34.28;;;19.95;;
65092;SDS011;52025;50.288;2.794;2023-02-15T10:49:37;33.95;;;20.08;;
65092;SDS011;52025;50.288;2.794;2023-02-15T10:52:18;34.85;;;19.98;;
65092;SDS011;52025;50.288;2.794;2023-02-15T11:00:13;38.28;;;21.00;;
65092;SDS011;52025;50.288;2.794;2023-02-15T11:07:50;36.60;;;20.50;;
65092;SDS011;52025;50.288;2.794;2023-02-15T11:12:49;34.72;;;20.30;;
65092;SDS011;52025;50.288;2.794;2023-02-15T11:17:45;37.30;;;21.05;;
65092;SDS011;52025;50.288;2.794;2023-02-15T11:20:18;32.75;;;20.05;;
65092;SDS011;52025;50.288;2.794;2023-02-15T11:22:47;38.23;;;19.70;;
65092;SDS011;52025;50.288;2.794;2023-02-15T11:25:22;36.83;;;21.15;;
65092;SDS011;52025;50.288;2.794;2023-02-15T11:27:48;37.97;;;22.00;;
65092;SDS011;52025;50.288;2.794;2023-02-15T11:30:15;36.25;;;19.95;;
65092;SDS011;52025;50.288;2.794;2023-02-15T11:32:42;37.05;;;21.23;;
65092;SDS011;52025;50.288;2.794;2023-02-15T11:37:38;36.80;;;20.55;;
65092;SDS011;52025;50.288;2.794;2023-02-15T11:40:14;34.97;;;20.15;;
65092;SDS011;52025;50.288;2.794;2023-02-15T11:42:40;36.50;;;20.02;;
65092;SDS011;52025;50.288;2.794;2023-02-15T11:45:19;36.58;;;21.75;;
65092;SDS011;52025;50.288;2.794;2023-02-15T11:47:46;32.40;;;20.10;;
65092;SDS011;52025;50.288;2.794;2023-02-15T11:50:15;34.95;;;20.02;;
65092;SDS011;52025;50.288;2.794;2023-02-15T11:52:43;37.80;;;20.02;;
65092;SDS011;52025;50.288;2.794;2023-02-15T11:55:16;37.42;;;20.20;;
65092;SDS011;52025;50.288;2.794;2023-02-15T11:57:43;40.20;;;22.00;;
65092;SDS011;52025;50.288;2.794;2023-02-15T12:00:20;41.22;;;21.10;;
65092;SDS011;52025;50.288;2.794;2023-02-15T12:02:51;35.35;;;21.08;;
65092;SDS011;52025;50.288;2.794;2023-02-15T12:05:19;34.78;;;20.10;;
65092;SDS011;52025;50.288;2.794;2023-02-15T12:07:57;38.10;;;19.88;;
65092;SDS011;52025;50.288;2.794;2023-02-15T12:10:27;35.50;;;19.65;;
65092;SDS011;52025;50.288;2.794;2023-02-15T12:15:40;38.25;;;20.58;;
65092;SDS011;52025;50.288;2.794;2023-02-15T12:18:15;32.50;;;18.65;;
65092;SDS011;52025;50.288;2.794;2023-02-15T12:20:42;37.85;;;21.08;;
65092;SDS011;52025;50.288;2.794;2023-02-15T12:23:12;38.05;;;20.23;;
65092;SDS011;52025;50.288;2.794;2023-02-15T12:25:49;36.42;;;20.15;;
65092;SDS011;52025;50.288;2.794;2023-02-15T12:28:33;32.33;;;18.20;;
65092;SDS011;52025;50.288;2.794;2023-02-15T12:30:58;36.00;;;19.42;;
65092;SDS011;52025;50.288;2.794;2023-02-15T12:33:26;31.13;;;18.55;;
65092;SDS011;52025;50.288;2.794;2023-02-15T12:41:31;32.60;;;18.17;;
65092;SDS011;52025;50.288;2.794;2023-02-15T12:44:04;34.05;;;19.00;;
65092;SDS011;52025;50.288;2.794;2023-02-15T12:46:29;33.90;;;19.63;;
65092;SDS011;52025;50.288;2.794;2023-02-15T12:56:49;34.28;;;20.30;;
65092;SDS011;52025;50.288;2.794;2023-02-15T12:59:14;34.55;;;19.13;;
65092;SDS011;52025;50.288;2.794;2023-02-15T13:01:45;32.50;;;19.50;;
65092;SDS011;52025;50.288;2.794;2023-02-15T13:04:21;32.50;;;19.05;;
65092;SDS011;52025;50.288;2.794;2023-02-15T13:06:48;39.22;;;19.88;;
65092;SDS011;52025;50.288;2.794;2023-02-15T13:11:39;33.57;;;20.47;;
65092;SDS011;52025;50.288;2.794;2023-02-15T13:14:52;35.72;;;20.25;;
65092;SDS011;52025;50.288;2.794;2023-02-15T13:16:53;33.70;;;20.15;;
65092;SDS011;52025;50.288;2.794;2023-02-15T13:19:28;31.70;;;19.45;;
65092;SDS011;52025;50.288;2.794;2023-02-15T13:21:55;35.80;;;21.27;;
65092;SDS011;52025;50.288;2.794;2023-02-15T13:24:25;34.05;;;19.98;;
65092;SDS011;52025;50.288;2.794;2023-02-15T13:26:55;34.63;;;20.90;;
65092;SDS011;52025;50.288;2.794;2023-02-15T13:29:28;38.88;;;19.75;;
65092;SDS011;52025;50.288;2.794;2023-02-15T13:31:53;34.75;;;19.45;;
65092;SDS011;52025;50.288;2.794;2023-02-15T13:34:25;33.88;;;19.95;;
65092;SDS011;52025;50.288;2.794;2023-02-15T13:39:23;31.85;;;18.55;;
65092;SDS011;52025;50.288;2.794;2023-02-15T13:41:56;33.38;;;18.38;;
65092;SDS011;52025;50.288;2.794;2023-02-15T13:54:32;31.48;;;18.48;;
65092;SDS011;52025;50.288;2.794;2023-02-15T13:57:06;31.17;;;18.40;;
65092;SDS011;52025;50.288;2.794;2023-02-15T14:12:46;31.73;;;17.80;;
65092;SDS011;52025;50.288;2.794;2023-02-15T14:23:06;33.35;;;17.98;;
65092;SDS011;52025;50.288;2.794;2023-02-15T14:25:38;35.47;;;19.65;;
65092;SDS011;52025;50.288;2.794;2023-02-15T14:30:34;32.10;;;18.27;;
65092;SDS011;52025;50.288;2.794;2023-02-15T14:33:47;31.35;;;18.98;;
65092;SDS011;52025;50.288;2.794;2023-02-15T14:35:47;38.10;;;19.25;;
65092;SDS011;52025;50.288;2.794;2023-02-15T14:38:15;35.15;;;20.20;;
65092;SDS011;52025;50.288;2.794;2023-02-15T14:40:53;35.95;;;19.63;;
65092;SDS011;52025;50.288;2.794;2023-02-15T14:45:55;29.40;;;17.73;;
65092;SDS011;52025;50.288;2.794;2023-02-15T14:48:30;33.38;;;18.95;;
65092;SDS011;52025;50.288;2.794;2023-02-15T14:50:56;35.38;;;18.65;;
65092;SDS011;52025;50.288;2.794;2023-02-15T14:53:32;32.08;;;19.00;;
65092;SDS011;52025;50.288;2.794;2023-02-15T14:58:38;29.83;;;18.38;;
65092;SDS011;52025;50.288;2.794;2023-02-15T15:01:33;32.72;;;18.05;;
65092;SDS011;52025;50.288;2.794;2023-02-15T15:04:03;30.13;;;18.67;;
65092;SDS011;52025;50.288;2.794;2023-02-15T15:06:30;34.85;;;18.25;;
65092;SDS011;52025;50.288;2.794;2023-02-15T15:09:05;34.40;;;17.98;;
65092;SDS011;52025;50.288;2.794;2023-02-15T15:11:39;30.77;;;18.30;;
65092;SDS011;52025;50.288;2.794;2023-02-15T15:14:04;31.05;;;18.85;;
65092;SDS011;52025;50.288;2.794;2023-02-15T15:16:31;33.97;;;20.27;;
65092;SDS011;52025;50.288;2.794;2023-02-15T15:19:10;29.13;;;17.52;;
65092;SDS011;52025;50.288;2.794;2023-02-15T15:24:34;34.95;;;21.88;;
65092;SDS011;52025;50.288;2.794;2023-02-15T15:29:43;29.70;;;17.55;;
65092;SDS011;52025;50.288;2.794;2023-02-15T15:32:08;30.38;;;16.75;;
65092;SDS011;52025;50.288;2.794;2023-02-15T15:47:54;36.78;;;21.23;;
65092;SDS011;52025;50.288;2.794;2023-02-15T15:50:24;35.08;;;20.95;;
65092;SDS011;52025;50.288;2.794;2023-02-15T15:52:50;37.05;;;21.42;;
65092;SDS011;52025;50.288;2.794;2023-02-15T15:55:21;39.83;;;23.63;;
65092;SDS011;52025;50.288;2.794;2023-02-15T15:57:48;41.08;;;23.70;;
65092;SDS011;52025;50.288;2.794;2023-02-15T16:00:58;40.30;;;22.38;;
65092;SDS011;52025;50.288;2.794;2023-02-15T16:03:03;37.15;;;23.23;;
65092;SDS011;52025;50.288;2.794;2023-02-15T16:05:36;36.97;;;21.70;;
65092;SDS011;52025;50.288;2.794;2023-02-15T16:08:02;40.22;;;21.02;;
65092;SDS011;52025;50.288;2.794;2023-02-15T16:10:28;34.88;;;20.85;;
65092;SDS011;52025;50.288;2.794;2023-02-15T16:12:57;36.50;;;21.00;;
65092;SDS011;52025;50.288;2.794;2023-02-15T16:15:28;37.78;;;19.88;;
65092;SDS011;52025;50.288;2.794;2023-02-15T16:17:56;31.00;;;19.65;;
65092;SDS011;52025;50.288;2.794;2023-02-15T16:22:48;33.55;;;20.17;;
65092;SDS011;52025;50.288;2.794;2023-02-15T16:27:51;36.50;;;21.73;;
65092;SDS011;52025;50.288;2.794;2023-02-15T16:30:24;37.10;;;22.17;;
65092;SDS011;52025;50.288;2.794;2023-02-15T16:32:54;42.90;;;23.15;;
65092;SDS011;52025;50.288;2.794;2023-02-15T16:35:20;32.55;;;20.35;;
65092;SDS011;52025;50.288;2.794;2023-02-15T16:37:47;37.65;;;20.60;;
65092;SDS011;52025;50.288;2.794;2023-02-15T16:42:57;35.97;;;20.73;;
65092;SDS011;52025;50.288;2.794;2023-02-15T16:45:25;34.33;;;20.75;;
65092;SDS011;52025;50.288;2.794;2023-02-15T16:47:52;32.45;;;20.80;;
65092;SDS011;52025;50.288;2.794;2023-02-15T16:52:43;34.20;;;20.30;;
65092;SDS011;52025;50.288;2.794;2023-02-15T16:55:22;37.67;;;20.23;;
65092;SDS011;52025;50.288;2.794;2023-02-15T16:57:48;34.85;;;19.58;;
65092;SDS011;52025;50.288;2.794;2023-02-15T17:00:21;36.35;;;20.73;;
65092;SDS011;52025;50.288;2.794;2023-02-15T17:02:57;35.55;;;20.55;;
65092;SDS011;52025;50.288;2.794;2023-02-15T17:05:23;38.75;;;20.38;;
65092;SDS011;52025;50.288;2.794;2023-02-15T17:07:50;36.78;;;21.85;;
65092;SDS011;52025;50.288;2.794;2023-02-15T17:12:54;36.72;;;21.35;;
65092;SDS011;52025;50.288;2.794;2023-02-15T17:17:58;34.97;;;19.63;;
65092;SDS011;52025;50.288;2.794;2023-02-15T17:20:27;36.55;;;20.80;;
65092;SDS011;52025;50.288;2.794;2023-02-15T17:22:53;38.60;;;23.13;;
65092;SDS011;52025;50.288;2.794;2023-02-15T17:25:20;34.67;;;22.23;;
65092;SDS011;52025;50.288;2.794;2023-02-15T17:27:50;33.25;;;20.90;;
65092;SDS011;52025;50.288;2.794;2023-02-15T17:30:17;34.72;;;20.65;;
65092;SDS011;52025;50.288;2.794;2023-02-15T17:32:53;35.15;;;19.67;;
65092;SDS011;52025;50.288;2.794;2023-02-15T17:35:20;36.85;;;21.85;;
65092;SDS011;52025;50.288;2.794;2023-02-15T17:37:47;32.40;;;20.40;;
65092;SDS011;52025;50.288;2.794;2023-02-15T17:40:23;28.23;;;17.40;;
65092;SDS011;52025;50.288;2.794;2023-02-15T17:42:48;31.30;;;19.70;;
65092;SDS011;52025;50.288;2.794;2023-02-15T17:45:14;34.22;;;19.52;;
65092;SDS011;52025;50.288;2.794;2023-02-15T17:47:39;32.33;;;19.73;;
65092;SDS011;52025;50.288;2.794;2023-02-15T17:50:05;36.05;;;20.48;;
65092;SDS011;52025;50.288;2.794;2023-02-15T17:52:31;31.67;;;18.35;;
65092;SDS011;52025;50.288;2.794;2023-02-15T17:54:57;33.03;;;19.08;;
65092;SDS011;52025;50.288;2.794;2023-02-15T17:57:41;30.63;;;18.70;;
65092;SDS011;52025;50.288;2.794;2023-02-15T18:00:07;29.23;;;18.25;;
65092;SDS011;52025;50.288;2.794;2023-02-15T18:05:34;27.83;;;17.30;;
65092;SDS011;52025;50.288;2.794;2023-02-15T18:08:19;30.38;;;18.42;;
65092;SDS011;52025;50.288;2.794;2023-02-15T18:11:07;31.17;;;18.17;;
65092;SDS011;52025;50.288;2.794;2023-02-15T18:13:51;30.05;;;18.90;;
65092;SDS011;52025;50.288;2.794;2023-02-15T18:16:18;34.78;;;18.65;;
65092;SDS011;52025;50.288;2.794;2023-02-15T18:18:44;32.53;;;19.10;;
65092;SDS011;52025;50.288;2.794;2023-02-15T18:21:13;32.30;;;18.65;;
65092;SDS011;52025;50.288;2.794;2023-02-15T18:23:38;32.78;;;18.88;;
65092;SDS011;52025;50.288;2.794;2023-02-15T18:26:04;31.80;;;18.70;;
65092;SDS011;52025;50.288;2.794;2023-02-15T18:28:29;33.10;;;19.13;;
65092;SDS011;52025;50.288;2.794;2023-02-15T18:30:55;30.20;;;17.48;;
65092;SDS011;52025;50.288;2.794;2023-02-15T18:35:58;41.10;;;25.30;;
65092;SDS011;52025;50.288;2.794;2023-02-15T18:38:27;41.47;;;23.75;;
65092;SDS011;52025;50.288;2.794;2023-02-15T18:40:52;35.55;;;21.67;;
65092;SDS011;52025;50.288;2.794;2023-02-15T18:43:17;39.78;;;22.35;;
65092;SDS011;52025;50.288;2.794;2023-02-15T18:45:43;35.60;;;21.17;;
65092;SDS011;52025;50.288;2.794;2023-02-15T18:48:08;34.30;;;20.15;;
65092;SDS011;52025;50.288;2.794;2023-02-15T18:50:34;39.47;;;21.67;;
65092;SDS011;52025;50.288;2.794;2023-02-15T18:52:59;33.65;;;20.50;;
65092;SDS011;52025;50.288;2.794;2023-02-15T18:55:26;32.35;;;19.67;;
65092;SDS011;52025;50.288;2.794;2023-02-15T18:57:53;33.00;;;19.63;;
65092;SDS011;52025;50.288;2.794;2023-02-15T19:00:29;34.72;;;20.80;;
65092;SDS011;52025;50.288;2.794;2023-02-15T19:02:56;32.45;;;19.25;;
65092;SDS011;52025;50.288;2.794;2023-02-15T19:05:22;31.52;;;18.70;;
65092;SDS011;52025;50.288;2.794;2023-02-15T19:07:48;29.90;;;18.30;;
65092;SDS011;52025;50.288;2.794;2023-02-15T19:10:15;30.40;;;17.52;;
65092;SDS011;52025;50.288;2.794;2023-02-15T19:12:41;32.78;;;18.75;;
65092;SDS011;52025;50.288;2.794;2023-02-15T19:15:12;27.83;;;17.75;;
65092;SDS011;52025;50.288;2.794;2023-02-15T19:17:38;32.67;;;19.42;;
65092;SDS011;52025;50.288;2.794;2023-02-15T19:20:03;32.30;;;19.65;;
65092;SDS011;52025;50.288;2.794;2023-02-15T19:22:29;33.85;;;20.30;;
65092;SDS011;52025;50.288;2.794;2023-02-15T19:24:56;31.02;;;18.27;;
65092;SDS011;52025;50.288;2.794;2023-02-15T19:27:29;33.55;;;19.00;;
65092;SDS011;52025;50.288;2.794;2023-02-15T19:29:56;30.05;;;18.98;;
65092;SDS011;52025;50.288;2.794;2023-02-15T19:32:22;31.45;;;19.23;;
65092;SDS011;52025;50.288;2.794;2023-02-15T19:34:47;30.35;;;20.10;;
65092;SDS011;52025;50.288;2.794;2023-02-15T19:37:23;32.15;;;18.98;;
65092;SDS011;52025;50.288;2.794;2023-02-15T19:39:49;29.10;;;19.85;;
65092;SDS011;52025;50.288;2.794;2023-02-15T19:42:20;32.42;;;18.48;;
65092;SDS011;52025;50.288;2.794;2023-02-15T19:44:46;36.17;;;21.27;;
65092;SDS011;52025;50.288;2.794;2023-02-15T19:47:11;32.13;;;19.83;;
65092;SDS011;52025;50.288;2.794;2023-02-15T19:49:37;39.58;;;22.20;;
65092;SDS011;52025;50.288;2.794;2023-02-15T19:52:02;42.13;;;23.02;;
65092;SDS011;52025;50.288;2.794;2023-02-15T19:54:28;36.03;;;21.70;;
65092;SDS011;52025;50.288;2.794;2023-02-15T19:56:55;34.95;;;20.92;;
65092;SDS011;52025;50.288;2.794;2023-02-15T19:59:22;33.70;;;21.15;;
65092;SDS011;52025;50.288;2.794;2023-02-15T20:01:48;31.35;;;18.83;;
65092;SDS011;52025;50.288;2.794;2023-02-15T20:04:13;33.88;;;20.38;;
65092;SDS011;52025;50.288;2.794;2023-02-15T20:06:42;30.25;;;20.00;;
65092;SDS011;52025;50.288;2.794;2023-02-15T20:09:10;32.67;;;20.65;;
65092;SDS011;52025;50.288;2.794;2023-02-15T20:11:38;35.08;;;20.33;;
65092;SDS011;52025;50.288;2.794;2023-02-15T20:14:04;42.13;;;24.25;;
65092;SDS011;52025;50.288;2.794;2023-02-15T20:16:30;33.35;;;19.85;;
65092;SDS011;52025;50.288;2.794;2023-02-15T20:18:55;32.45;;;19.80;;
65092;SDS011;52025;50.288;2.794;2023-02-15T20:21:20;29.98;;;18.95;;
65092;SDS011;52025;50.288;2.794;2023-02-15T20:23:45;33.20;;;19.85;;
65092;SDS011;52025;50.288;2.794;2023-02-15T20:26:12;31.58;;;19.02;;
65092;SDS011;52025;50.288;2.794;2023-02-15T20:28:37;31.75;;;21.42;;
65092;SDS011;52025;50.288;2.794;2023-02-15T20:31:03;33.55;;;20.27;;
65092;SDS011;52025;50.288;2.794;2023-02-15T20:33:28;35.28;;;20.50;;
65092;SDS011;52025;50.288;2.794;2023-02-15T20:35:53;35.60;;;19.73;;
65092;SDS011;52025;50.288;2.794;2023-02-15T20:38:20;32.15;;;20.95;;
65092;SDS011;52025;50.288;2.794;2023-02-15T20:40:46;33.42;;;20.48;;
65092;SDS011;52025;50.288;2.794;2023-02-15T20:43:30;38.58;;;22.60;;
65092;SDS011;52025;50.288;2.794;2023-02-15T20:45:56;36.13;;;21.08;;
65092;SDS011;52025;50.288;2.794;2023-02-15T20:48:21;33.15;;;20.83;;
65092;SDS011;52025;50.288;2.794;2023-02-15T20:50:46;35.72;;;22.30;;
65092;SDS011;52025;50.288;2.794;2023-02-15T20:53:11;35.28;;;21.35;;
65092;SDS011;52025;50.288;2.794;2023-02-15T20:55:37;36.30;;;22.00;;
65092;SDS011;52025;50.288;2.794;2023-02-15T20:58:04;35.10;;;21.08;;
65092;SDS011;52025;50.288;2.794;2023-02-15T21:00:35;34.88;;;21.88;;
65092;SDS011;52025;50.288;2.794;2023-02-15T21:03:00;35.60;;;21.35;;
65092;SDS011;52025;50.288;2.794;2023-02-15T21:05:27;36.15;;;21.23;;
65092;SDS011;52025;50.288;2.794;2023-02-15T21:07:54;37.35;;;21.00;;
65092;SDS011;52025;50.288;2.794;2023-02-15T21:10:20;35.53;;;22.10;;
65092;SDS011;52025;50.288;2.794;2023-02-15T21:12:46;36.22;;;22.13;;
65092;SDS011;52025;50.288;2.794;2023-02-15T21:15:26;33.58;;;21.45;;
65092;SDS011;52025;50.288;2.794;2023-02-15T21:17:52;37.03;;;22.83;;
65092;SDS011;52025;50.288;2.794;2023-02-15T21:20:18;33.90;;;21.70;;
65092;SDS011;52025;50.288;2.794;2023-02-15T21:22:44;38.95;;;24.13;;
65092;SDS011;52025;50.288;2.794;2023-02-15T21:25:13;39.30;;;22.55;;
65092;SDS011;52025;50.288;2.794;2023-02-15T21:27:39;35.20;;;23.05;;
65092;SDS011;52025;50.288;2.794;2023-02-15T21:30:12;39.42;;;22.42;;
65092;SDS011;52025;50.288;2.794;2023-02-15T21:32:38;35.63;;;22.40;;
65092;SDS011;52025;50.288;2.794;2023-02-15T21:35:03;36.45;;;22.45;;
65092;SDS011;52025;50.288;2.794;2023-02-15T21:37:30;39.33;;;22.45;;
65092;SDS011;52025;50.288;2.794;2023-02-15T21:39:56;45.20;;;26.90;;
65092;SDS011;52025;50.288;2.794;2023-02-15T21:42:21;41.67;;;24.65;;
65092;SDS011;52025;50.288;2.794;2023-02-15T21:45:12;37.83;;;23.85;;
65092;SDS011;52025;50.288;2.794;2023-02-15T21:47:56;39.67;;;21.45;;
65092;SDS011;52025;50.288;2.794;2023-02-15T21:50:22;36.85;;;22.52;;
65092;SDS011;52025;50.288;2.794;2023-02-15T21:53:09;38.05;;;22.20;;
65092;SDS011;52025;50.288;2.794;2023-02-15T21:55:36;41.08;;;23.38;;
65092;SDS011;52025;50.288;2.794;2023-02-15T21:58:01;37.35;;;22.98;;
65092;SDS011;52025;50.288;2.794;2023-02-15T22:00:26;37.97;;;22.52;;
65092;SDS011;52025;50.288;2.794;2023-02-15T22:02:53;38.50;;;22.20;;
65092;SDS011;52025;50.288;2.794;2023-02-15T22:05:29;39.10;;;23.67;;
65092;SDS011;52025;50.288;2.794;2023-02-15T22:07:54;38.83;;;23.45;;
65092;SDS011;52025;50.288;2.794;2023-02-15T22:10:21;40.78;;;23.75;;
65092;SDS011;52025;50.288;2.794;2023-02-15T22:12:46;39.45;;;24.00;;
65092;SDS011;52025;50.288;2.794;2023-02-15T22:15:21;35.85;;;21.80;;
65092;SDS011;52025;50.288;2.794;2023-02-15T22:17:47;44.78;;;23.48;;
65092;SDS011;52025;50.288;2.794;2023-02-15T22:20:15;39.50;;;24.77;;
65092;SDS011;52025;50.288;2.794;2023-02-15T22:22:41;40.72;;;23.63;;
65092;SDS011;52025;50.288;2.794;2023-02-15T22:25:06;41.05;;;23.45;;
65092;SDS011;52025;50.288;2.794;2023-02-15T22:27:33;40.45;;;25.05;;
65092;SDS011;52025;50.288;2.794;2023-02-15T22:30:00;40.13;;;23.92;;
65092;SDS011;52025;50.288;2.794;2023-02-15T22:32:25;37.75;;;24.10;;
65092;SDS011;52025;50.288;2.794;2023-02-15T22:34:51;41.83;;;24.38;;
65092;SDS011;52025;50.288;2.794;2023-02-15T22:40:15;38.63;;;23.25;;
65092;SDS011;52025;50.288;2.794;2023-02-15T22:42:40;41.22;;;25.02;;
65092;SDS011;52025;50.288;2.794;2023-02-15T22:45:08;41.10;;;24.38;;